sensor_id;sensor_type;location;lat;lon;timestamp;P1;durP1;ratioP1;P2;durP2;ratioP2
27985;SDS011;15453;53.692;10.168;2022-12-15T00:01:42;37.03;;;17.03;;
27985;SDS011;15453;53.692;10.168;2022-12-15T00:04:25;35.83;;;18.10;;
27985;SDS011;15453;53.692;10.168;2022-12-15T00:07:09;36.17;;;17.33;;
27985;SDS011;15453;53.692;10.168;2022-12-15T00:09:53;36.23;;;18.30;;
27985;SDS011;15453;53.692;10.168;2022-12-15T00:12:37;33.93;;;17.03;;
27985;SDS011;15453;53.692;10.168;2022-12-15T00:15:21;39.90;;;18.90;;
27985;SDS011;15453;53.692;10.168;2022-12-15T00:18:05;36.77;;;19.13;;
27985;SDS011;15453;53.692;10.168;2022-12-15T00:20:49;35.47;;;18.07;;
27985;SDS011;15453;53.692;10.168;2022-12-15T00:23:33;31.43;;;16.77;;
27985;SDS011;15453;53.692;10.168;2022-12-15T00:26:17;28.03;;;15.27;;
27985;SDS011;15453;53.692;10.168;2022-12-15T00:29:01;30.60;;;14.80;;
27985;SDS011;15453;53.692;10.168;2022-12-15T00:31:45;32.33;;;16.63;;
27985;SDS011;15453;53.692;10.168;2022-12-15T00:34:28;32.10;;;16.23;;
27985;SDS011;15453;53.692;10.168;2022-12-15T00:37:12;32.17;;;15.03;;
27985;SDS011;15453;53.692;10.168;2022-12-15T00:39:56;29.43;;;16.83;;
27985;SDS011;15453;53.692;10.168;2022-12-15T00:42:28;33.50;;;16.87;;
27985;SDS011;15453;53.692;10.168;2022-12-15T00:44:55;32.33;;;16.53;;
27985;SDS011;15453;53.692;10.168;2022-12-15T00:47:21;36.35;;;16.95;;
27985;SDS011;15453;53.692;10.168;2022-12-15T00:49:47;39.00;;;19.15;;
27985;SDS011;15453;53.692;10.168;2022-12-15T00:52:31;34.00;;;15.75;;
27985;SDS011;15453;53.692;10.168;2022-12-15T00:55:15;31.83;;;16.23;;
27985;SDS011;15453;53.692;10.168;2022-12-15T00:57:59;35.90;;;16.92;;
27985;SDS011;15453;53.692;10.168;2022-12-15T01:00:43;33.00;;;17.25;;
27985;SDS011;15453;53.692;10.168;2022-12-15T01:03:27;40.33;;;18.52;;
27985;SDS011;15453;53.692;10.168;2022-12-15T01:06:12;34.53;;;17.65;;
27985;SDS011;15453;53.692;10.168;2022-12-15T01:08:57;32.65;;;16.27;;
27985;SDS011;15453;53.692;10.168;2022-12-15T01:11:42;35.50;;;17.33;;
27985;SDS011;15453;53.692;10.168;2022-12-15T01:14:27;30.08;;;16.88;;
27985;SDS011;15453;53.692;10.168;2022-12-15T01:17:11;31.10;;;16.40;;
27985;SDS011;15453;53.692;10.168;2022-12-15T01:19:55;35.05;;;17.52;;
27985;SDS011;15453;53.692;10.168;2022-12-15T01:22:39;30.58;;;16.20;;
27985;SDS011;15453;53.692;10.168;2022-12-15T01:25:06;32.20;;;16.48;;
27985;SDS011;15453;53.692;10.168;2022-12-15T01:27:33;31.58;;;17.23;;
27985;SDS011;15453;53.692;10.168;2022-12-15T01:29:58;29.70;;;16.17;;
27985;SDS011;15453;53.692;10.168;2022-12-15T01:32:24;37.03;;;17.60;;
27985;SDS011;15453;53.692;10.168;2022-12-15T01:34:51;34.45;;;18.15;;
27985;SDS011;15453;53.692;10.168;2022-12-15T01:37:16;32.67;;;16.80;;
27985;SDS011;15453;53.692;10.168;2022-12-15T01:39:42;39.15;;;18.40;;
27985;SDS011;15453;53.692;10.168;2022-12-15T01:42:26;32.95;;;16.95;;
27985;SDS011;15453;53.692;10.168;2022-12-15T01:44:51;34.90;;;17.05;;
27985;SDS011;15453;53.692;10.168;2022-12-15T01:47:20;29.35;;;15.95;;
27985;SDS011;15453;53.692;10.168;2022-12-15T01:49:48;30.85;;;16.17;;
27985;SDS011;15453;53.692;10.168;2022-12-15T01:52:14;34.30;;;17.40;;
27985;SDS011;15453;53.692;10.168;2022-12-15T01:54:48;28.85;;;15.65;;
27985;SDS011;15453;53.692;10.168;2022-12-15T01:57:17;32.50;;;15.13;;
27985;SDS011;15453;53.692;10.168;2022-12-15T01:59:47;29.05;;;15.52;;
27985;SDS011;15453;53.692;10.168;2022-12-15T02:02:14;25.63;;;12.57;;
27985;SDS011;15453;53.692;10.168;2022-12-15T02:04:41;33.08;;;17.00;;
27985;SDS011;15453;53.692;10.168;2022-12-15T02:07:12;34.47;;;17.52;;
27985;SDS011;15453;53.692;10.168;2022-12-15T02:09:38;31.00;;;16.65;;
27985;SDS011;15453;53.692;10.168;2022-12-15T02:20:38;27.75;;;14.38;;
27985;SDS011;15453;53.692;10.168;2022-12-15T02:23:33;32.10;;;16.38;;
27985;SDS011;15453;53.692;10.168;2022-12-15T02:32:06;28.25;;;14.85;;
27985;SDS011;15453;53.692;10.168;2022-12-15T02:37:18;30.38;;;16.30;;
27985;SDS011;15453;53.692;10.168;2022-12-15T02:39:51;32.78;;;16.95;;
27985;SDS011;15453;53.692;10.168;2022-12-15T02:42:16;31.65;;;16.10;;
27985;SDS011;15453;53.692;10.168;2022-12-15T02:44:52;34.33;;;16.65;;
27985;SDS011;15453;53.692;10.168;2022-12-15T02:53:10;34.67;;;16.90;;
27985;SDS011;15453;53.692;10.168;2022-12-15T02:55:53;31.58;;;15.45;;
27985;SDS011;15453;53.692;10.168;2022-12-15T02:58:27;28.02;;;14.75;;
27985;SDS011;15453;53.692;10.168;2022-12-15T03:01:06;28.50;;;14.93;;
27985;SDS011;15453;53.692;10.168;2022-12-15T03:03:36;31.80;;;16.50;;
27985;SDS011;15453;53.692;10.168;2022-12-15T03:06:03;34.40;;;16.52;;
27985;SDS011;15453;53.692;10.168;2022-12-15T03:08:28;31.08;;;15.98;;
27985;SDS011;15453;53.692;10.168;2022-12-15T03:10:54;28.50;;;14.80;;
27985;SDS011;15453;53.692;10.168;2022-12-15T03:13:22;32.33;;;14.95;;
27985;SDS011;15453;53.692;10.168;2022-12-15T03:15:48;30.38;;;15.20;;
27985;SDS011;15453;53.692;10.168;2022-12-15T03:18:13;27.20;;;14.68;;
27985;SDS011;15453;53.692;10.168;2022-12-15T03:20:39;28.98;;;14.63;;
27985;SDS011;15453;53.692;10.168;2022-12-15T03:23:04;28.17;;;14.07;;
27985;SDS011;15453;53.692;10.168;2022-12-15T03:25:30;30.20;;;14.30;;
27985;SDS011;15453;53.692;10.168;2022-12-15T03:27:55;32.13;;;15.23;;
27985;SDS011;15453;53.692;10.168;2022-12-15T03:30:20;31.35;;;15.95;;
27985;SDS011;15453;53.692;10.168;2022-12-15T03:32:46;27.13;;;14.20;;
27985;SDS011;15453;53.692;10.168;2022-12-15T03:35:11;28.23;;;15.33;;
27985;SDS011;15453;53.692;10.168;2022-12-15T03:37:37;30.10;;;15.60;;
27985;SDS011;15453;53.692;10.168;2022-12-15T03:40:02;27.42;;;14.43;;
27985;SDS011;15453;53.692;10.168;2022-12-15T03:42:28;27.17;;;14.27;;
27985;SDS011;15453;53.692;10.168;2022-12-15T03:45:12;31.52;;;15.82;;
27985;SDS011;15453;53.692;10.168;2022-12-15T03:47:41;29.20;;;14.75;;
27985;SDS011;15453;53.692;10.168;2022-12-15T03:50:07;20.40;;;9.90;;
27985;SDS011;15453;53.692;10.168;2022-12-15T03:52:33;27.80;;;14.32;;
27985;SDS011;15453;53.692;10.168;2022-12-15T03:54:59;26.80;;;14.68;;
27985;SDS011;15453;53.692;10.168;2022-12-15T03:57:25;26.48;;;13.68;;
27985;SDS011;15453;53.692;10.168;2022-12-15T03:59:50;28.45;;;14.98;;
27985;SDS011;15453;53.692;10.168;2022-12-15T04:02:15;28.45;;;13.70;;
27985;SDS011;15453;53.692;10.168;2022-12-15T04:04:41;29.55;;;14.93;;
27985;SDS011;15453;53.692;10.168;2022-12-15T04:07:06;28.00;;;13.87;;
27985;SDS011;15453;53.692;10.168;2022-12-15T04:09:31;28.13;;;14.68;;
27985;SDS011;15453;53.692;10.168;2022-12-15T04:11:57;33.13;;;15.07;;
27985;SDS011;15453;53.692;10.168;2022-12-15T04:14:22;31.63;;;14.98;;
27985;SDS011;15453;53.692;10.168;2022-12-15T04:16:47;29.40;;;14.77;;
27985;SDS011;15453;53.692;10.168;2022-12-15T04:19:12;29.95;;;15.10;;
27985;SDS011;15453;53.692;10.168;2022-12-15T04:21:56;30.85;;;15.77;;
27985;SDS011;15453;53.692;10.168;2022-12-15T04:24:22;30.92;;;15.35;;
27985;SDS011;15453;53.692;10.168;2022-12-15T04:27:05;26.03;;;13.80;;
27985;SDS011;15453;53.692;10.168;2022-12-15T04:29:49;30.08;;;15.40;;
27985;SDS011;15453;53.692;10.168;2022-12-15T04:32:33;26.02;;;14.82;;
27985;SDS011;15453;53.692;10.168;2022-12-15T04:35:17;29.08;;;15.40;;
27985;SDS011;15453;53.692;10.168;2022-12-15T04:38:01;29.35;;;14.13;;
27985;SDS011;15453;53.692;10.168;2022-12-15T04:40:45;30.25;;;14.70;;
27985;SDS011;15453;53.692;10.168;2022-12-15T04:43:29;24.60;;;14.00;;
27985;SDS011;15453;53.692;10.168;2022-12-15T04:46:13;26.50;;;13.02;;
27985;SDS011;15453;53.692;10.168;2022-12-15T04:48:57;27.88;;;13.75;;
27985;SDS011;15453;53.692;10.168;2022-12-15T04:51:41;28.10;;;14.60;;
27985;SDS011;15453;53.692;10.168;2022-12-15T04:54:25;27.83;;;13.85;;
27985;SDS011;15453;53.692;10.168;2022-12-15T04:57:09;24.07;;;13.13;;
27985;SDS011;15453;53.692;10.168;2022-12-15T04:59:53;29.53;;;14.03;;
27985;SDS011;15453;53.692;10.168;2022-12-15T05:02:37;25.30;;;12.50;;
27985;SDS011;15453;53.692;10.168;2022-12-15T05:05:21;28.85;;;14.82;;
27985;SDS011;15453;53.692;10.168;2022-12-15T05:08:04;28.85;;;13.43;;
27985;SDS011;15453;53.692;10.168;2022-12-15T05:10:48;28.13;;;13.30;;
27985;SDS011;15453;53.692;10.168;2022-12-15T05:13:32;30.67;;;14.23;;
27985;SDS011;15453;53.692;10.168;2022-12-15T05:16:16;28.70;;;13.27;;
27985;SDS011;15453;53.692;10.168;2022-12-15T05:19:00;30.03;;;13.53;;
27985;SDS011;15453;53.692;10.168;2022-12-15T05:21:44;30.42;;;13.88;;
27985;SDS011;15453;53.692;10.168;2022-12-15T05:24:28;29.15;;;15.20;;
27985;SDS011;15453;53.692;10.168;2022-12-15T05:27:12;29.38;;;14.60;;
27985;SDS011;15453;53.692;10.168;2022-12-15T05:29:56;27.40;;;14.67;;
27985;SDS011;15453;53.692;10.168;2022-12-15T05:32:40;28.38;;;14.60;;
27985;SDS011;15453;53.692;10.168;2022-12-15T05:35:05;28.80;;;14.93;;
27985;SDS011;15453;53.692;10.168;2022-12-15T05:37:30;26.67;;;13.02;;
27985;SDS011;15453;53.692;10.168;2022-12-15T05:39:56;25.52;;;13.13;;
27985;SDS011;15453;53.692;10.168;2022-12-15T05:42:21;27.70;;;13.50;;
27985;SDS011;15453;53.692;10.168;2022-12-15T05:44:46;28.05;;;14.02;;
27985;SDS011;15453;53.692;10.168;2022-12-15T05:47:11;30.55;;;14.77;;
27985;SDS011;15453;53.692;10.168;2022-12-15T05:49:37;31.38;;;14.13;;
27985;SDS011;15453;53.692;10.168;2022-12-15T05:52:02;35.23;;;15.90;;
27985;SDS011;15453;53.692;10.168;2022-12-15T05:54:27;29.17;;;14.70;;
27985;SDS011;15453;53.692;10.168;2022-12-15T05:56:53;28.33;;;14.15;;
27985;SDS011;15453;53.692;10.168;2022-12-15T05:59:18;31.02;;;14.18;;
27985;SDS011;15453;53.692;10.168;2022-12-15T06:01:43;28.45;;;14.20;;
27985;SDS011;15453;53.692;10.168;2022-12-15T06:04:09;28.45;;;14.55;;
27985;SDS011;15453;53.692;10.168;2022-12-15T06:06:36;29.40;;;12.88;;
27985;SDS011;15453;53.692;10.168;2022-12-15T06:09:02;28.67;;;15.10;;
27985;SDS011;15453;53.692;10.168;2022-12-15T06:11:28;26.25;;;14.60;;
27985;SDS011;15453;53.692;10.168;2022-12-15T06:13:53;27.65;;;13.82;;
27985;SDS011;15453;53.692;10.168;2022-12-15T06:16:19;32.67;;;16.08;;
27985;SDS011;15453;53.692;10.168;2022-12-15T06:18:48;27.05;;;14.00;;
27985;SDS011;15453;53.692;10.168;2022-12-15T06:21:15;26.75;;;13.50;;
27985;SDS011;15453;53.692;10.168;2022-12-15T06:23:42;26.75;;;13.63;;
27985;SDS011;15453;53.692;10.168;2022-12-15T06:28:39;24.58;;;13.82;;
27985;SDS011;15453;53.692;10.168;2022-12-15T06:31:06;26.45;;;13.25;;
27985;SDS011;15453;53.692;10.168;2022-12-15T06:33:32;25.77;;;13.48;;
27985;SDS011;15453;53.692;10.168;2022-12-15T06:36:05;24.48;;;13.40;;
27985;SDS011;15453;53.692;10.168;2022-12-15T06:38:32;30.52;;;15.18;;
27985;SDS011;15453;53.692;10.168;2022-12-15T06:40:58;28.27;;;14.90;;
27985;SDS011;15453;53.692;10.168;2022-12-15T06:43:24;26.27;;;13.50;;
27985;SDS011;15453;53.692;10.168;2022-12-15T06:45:50;23.38;;;12.55;;
27985;SDS011;15453;53.692;10.168;2022-12-15T06:48:16;27.83;;;14.43;;
27985;SDS011;15453;53.692;10.168;2022-12-15T06:50:42;33.47;;;14.55;;
27985;SDS011;15453;53.692;10.168;2022-12-15T06:53:07;32.63;;;14.13;;
27985;SDS011;15453;53.692;10.168;2022-12-15T06:55:33;30.77;;;14.02;;
27985;SDS011;15453;53.692;10.168;2022-12-15T06:57:58;24.45;;;13.20;;
27985;SDS011;15453;53.692;10.168;2022-12-15T07:00:23;30.52;;;14.38;;
27985;SDS011;15453;53.692;10.168;2022-12-15T07:02:49;31.75;;;15.55;;
27985;SDS011;15453;53.692;10.168;2022-12-15T07:05:14;29.80;;;14.18;;
27985;SDS011;15453;53.692;10.168;2022-12-15T07:07:40;26.92;;;14.63;;
27985;SDS011;15453;53.692;10.168;2022-12-15T07:10:05;28.77;;;15.05;;
27985;SDS011;15453;53.692;10.168;2022-12-15T07:12:30;30.08;;;14.52;;
27985;SDS011;15453;53.692;10.168;2022-12-15T07:14:56;25.10;;;13.88;;
27985;SDS011;15453;53.692;10.168;2022-12-15T07:17:21;33.70;;;14.25;;
27985;SDS011;15453;53.692;10.168;2022-12-15T07:19:47;31.63;;;15.40;;
27985;SDS011;15453;53.692;10.168;2022-12-15T07:22:12;24.83;;;13.75;;
27985;SDS011;15453;53.692;10.168;2022-12-15T07:24:37;29.08;;;14.43;;
27985;SDS011;15453;53.692;10.168;2022-12-15T07:27:02;26.65;;;13.93;;
27985;SDS011;15453;53.692;10.168;2022-12-15T07:29:27;29.10;;;14.40;;
27985;SDS011;15453;53.692;10.168;2022-12-15T07:31:53;35.08;;;15.88;;
27985;SDS011;15453;53.692;10.168;2022-12-15T07:34:18;31.33;;;15.30;;
27985;SDS011;15453;53.692;10.168;2022-12-15T07:36:43;30.58;;;15.50;;
27985;SDS011;15453;53.692;10.168;2022-12-15T07:39:09;32.65;;;16.40;;
27985;SDS011;15453;53.692;10.168;2022-12-15T07:41:37;29.98;;;16.02;;
27985;SDS011;15453;53.692;10.168;2022-12-15T07:44:04;32.25;;;16.17;;
27985;SDS011;15453;53.692;10.168;2022-12-15T07:46:30;32.88;;;16.33;;
27985;SDS011;15453;53.692;10.168;2022-12-15T07:48:55;33.90;;;16.48;;
27985;SDS011;15453;53.692;10.168;2022-12-15T07:51:20;33.15;;;17.10;;
27985;SDS011;15453;53.692;10.168;2022-12-15T07:53:47;32.95;;;15.82;;
27985;SDS011;15453;53.692;10.168;2022-12-15T07:56:14;30.05;;;16.48;;
27985;SDS011;15453;53.692;10.168;2022-12-15T07:58:39;35.53;;;17.30;;
27985;SDS011;15453;53.692;10.168;2022-12-15T08:01:05;35.20;;;17.55;;
27985;SDS011;15453;53.692;10.168;2022-12-15T08:03:32;31.17;;;16.60;;
27985;SDS011;15453;53.692;10.168;2022-12-15T08:06:01;31.10;;;16.55;;
27985;SDS011;15453;53.692;10.168;2022-12-15T08:08:27;34.47;;;16.98;;
27985;SDS011;15453;53.692;10.168;2022-12-15T08:10:53;33.75;;;16.75;;
27985;SDS011;15453;53.692;10.168;2022-12-15T08:13:18;36.63;;;17.92;;
27985;SDS011;15453;53.692;10.168;2022-12-15T08:15:44;32.85;;;16.85;;
27985;SDS011;15453;53.692;10.168;2022-12-15T08:18:09;35.88;;;17.20;;
27985;SDS011;15453;53.692;10.168;2022-12-15T08:20:34;39.08;;;17.65;;
27985;SDS011;15453;53.692;10.168;2022-12-15T08:22:59;35.65;;;17.58;;
27985;SDS011;15453;53.692;10.168;2022-12-15T08:25:25;34.58;;;17.30;;
27985;SDS011;15453;53.692;10.168;2022-12-15T08:27:54;33.50;;;16.65;;
27985;SDS011;15453;53.692;10.168;2022-12-15T08:30:20;31.42;;;16.50;;
27985;SDS011;15453;53.692;10.168;2022-12-15T08:32:45;31.83;;;16.75;;
27985;SDS011;15453;53.692;10.168;2022-12-15T08:35:11;33.58;;;16.67;;
27985;SDS011;15453;53.692;10.168;2022-12-15T08:37:37;36.70;;;17.02;;
27985;SDS011;15453;53.692;10.168;2022-12-15T08:40:03;34.00;;;16.65;;
27985;SDS011;15453;53.692;10.168;2022-12-15T08:42:35;33.38;;;16.35;;
27985;SDS011;15453;53.692;10.168;2022-12-15T08:45:01;37.97;;;18.63;;
27985;SDS011;15453;53.692;10.168;2022-12-15T08:47:27;42.80;;;18.80;;
27985;SDS011;15453;53.692;10.168;2022-12-15T08:49:53;43.08;;;19.75;;
27985;SDS011;15453;53.692;10.168;2022-12-15T08:52:19;35.67;;;17.80;;
27985;SDS011;15453;53.692;10.168;2022-12-15T08:54:45;37.42;;;19.50;;
27985;SDS011;15453;53.692;10.168;2022-12-15T08:57:10;38.90;;;18.95;;
27985;SDS011;15453;53.692;10.168;2022-12-15T08:59:36;46.33;;;19.77;;
27985;SDS011;15453;53.692;10.168;2022-12-15T09:02:01;40.90;;;19.88;;
27985;SDS011;15453;53.692;10.168;2022-12-15T09:04:26;38.33;;;18.63;;
27985;SDS011;15453;53.692;10.168;2022-12-15T09:06:51;38.72;;;18.65;;
27985;SDS011;15453;53.692;10.168;2022-12-15T09:09:17;36.05;;;18.48;;
27985;SDS011;15453;53.692;10.168;2022-12-15T09:11:43;32.97;;;16.77;;
27985;SDS011;15453;53.692;10.168;2022-12-15T09:14:08;42.17;;;19.27;;
27985;SDS011;15453;53.692;10.168;2022-12-15T09:16:33;34.80;;;16.85;;
27985;SDS011;15453;53.692;10.168;2022-12-15T09:18:59;33.38;;;18.27;;
27985;SDS011;15453;53.692;10.168;2022-12-15T09:21:26;31.58;;;17.30;;
27985;SDS011;15453;53.692;10.168;2022-12-15T09:23:54;35.55;;;16.83;;
27985;SDS011;15453;53.692;10.168;2022-12-15T09:26:22;32.70;;;17.73;;
27985;SDS011;15453;53.692;10.168;2022-12-15T09:28:48;32.53;;;17.00;;
27985;SDS011;15453;53.692;10.168;2022-12-15T09:31:15;42.90;;;17.63;;
27985;SDS011;15453;53.692;10.168;2022-12-15T09:33:44;37.80;;;17.85;;
27985;SDS011;15453;53.692;10.168;2022-12-15T09:36:10;30.42;;;16.88;;
27985;SDS011;15453;53.692;10.168;2022-12-15T09:38:37;29.50;;;16.08;;
27985;SDS011;15453;53.692;10.168;2022-12-15T09:41:47;35.20;;;16.98;;
27985;SDS011;15453;53.692;10.168;2022-12-15T09:49:56;40.67;;;19.88;;
27985;SDS011;15453;53.692;10.168;2022-12-15T09:54:48;33.53;;;17.38;;
27985;SDS011;15453;53.692;10.168;2022-12-15T10:00:05;33.58;;;17.60;;
27985;SDS011;15453;53.692;10.168;2022-12-15T10:08:30;34.22;;;16.73;;
27985;SDS011;15453;53.692;10.168;2022-12-15T10:11:11;31.48;;;16.20;;
27985;SDS011;15453;53.692;10.168;2022-12-15T10:14:06;30.63;;;15.80;;
27985;SDS011;15453;53.692;10.168;2022-12-15T10:16:56;32.92;;;16.38;;
27985;SDS011;15453;53.692;10.168;2022-12-15T10:22:15;28.15;;;15.50;;
27985;SDS011;15453;53.692;10.168;2022-12-15T10:24:52;32.42;;;16.42;;
27985;SDS011;15453;53.692;10.168;2022-12-15T10:30:06;31.27;;;17.23;;
27985;SDS011;15453;53.692;10.168;2022-12-15T10:32:40;27.85;;;16.58;;
27985;SDS011;15453;53.692;10.168;2022-12-15T10:35:13;31.75;;;15.98;;
27985;SDS011;15453;53.692;10.168;2022-12-15T10:37:40;33.85;;;15.85;;
27985;SDS011;15453;53.692;10.168;2022-12-15T10:40:06;27.40;;;14.85;;
27985;SDS011;15453;53.692;10.168;2022-12-15T10:42:32;25.23;;;14.35;;
27985;SDS011;15453;53.692;10.168;2022-12-15T10:45:27;29.75;;;13.85;;
27985;SDS011;15453;53.692;10.168;2022-12-15T10:47:57;23.45;;;14.10;;
27985;SDS011;15453;53.692;10.168;2022-12-15T10:50:23;27.52;;;16.00;;
27985;SDS011;15453;53.692;10.168;2022-12-15T10:52:49;31.13;;;15.00;;
27985;SDS011;15453;53.692;10.168;2022-12-15T10:55:30;23.70;;;13.48;;
27985;SDS011;15453;53.692;10.168;2022-12-15T10:58:06;27.45;;;13.95;;
27985;SDS011;15453;53.692;10.168;2022-12-15T11:00:40;25.65;;;14.60;;
27985;SDS011;15453;53.692;10.168;2022-12-15T11:03:19;22.95;;;13.52;;
27985;SDS011;15453;53.692;10.168;2022-12-15T11:05:50;27.45;;;14.23;;
27985;SDS011;15453;53.692;10.168;2022-12-15T11:08:17;27.83;;;14.90;;
27985;SDS011;15453;53.692;10.168;2022-12-15T11:14:12;26.08;;;15.45;;
27985;SDS011;15453;53.692;10.168;2022-12-15T11:16:50;27.67;;;14.27;;
27985;SDS011;15453;53.692;10.168;2022-12-15T11:21:56;23.75;;;13.50;;
27985;SDS011;15453;53.692;10.168;2022-12-15T11:27:12;28.38;;;13.75;;
27985;SDS011;15453;53.692;10.168;2022-12-15T11:32:30;23.90;;;13.95;;
27985;SDS011;15453;53.692;10.168;2022-12-15T11:34:58;22.92;;;13.48;;
27985;SDS011;15453;53.692;10.168;2022-12-15T11:37:37;28.90;;;15.82;;
27985;SDS011;15453;53.692;10.168;2022-12-15T11:40:16;25.25;;;14.75;;
27985;SDS011;15453;53.692;10.168;2022-12-15T11:42:47;30.27;;;14.45;;
27985;SDS011;15453;53.692;10.168;2022-12-15T11:45:24;25.90;;;13.25;;
27985;SDS011;15453;53.692;10.168;2022-12-15T11:48:04;23.80;;;13.30;;
27985;SDS011;15453;53.692;10.168;2022-12-15T11:56:19;23.17;;;12.90;;
27985;SDS011;15453;53.692;10.168;2022-12-15T12:01:52;22.35;;;12.35;;
27985;SDS011;15453;53.692;10.168;2022-12-15T12:04:29;22.55;;;12.45;;
27985;SDS011;15453;53.692;10.168;2022-12-15T12:09:29;21.45;;;11.65;;
27985;SDS011;15453;53.692;10.168;2022-12-15T12:20:16;18.38;;;10.93;;
27985;SDS011;15453;53.692;10.168;2022-12-15T12:22:56;20.92;;;10.65;;
27985;SDS011;15453;53.692;10.168;2022-12-15T12:25:28;27.83;;;10.68;;
27985;SDS011;15453;53.692;10.168;2022-12-15T12:30:50;17.20;;;9.88;;
27985;SDS011;15453;53.692;10.168;2022-12-15T12:33:29;19.95;;;10.65;;
27985;SDS011;15453;53.692;10.168;2022-12-15T12:36:10;18.75;;;10.07;;
27985;SDS011;15453;53.692;10.168;2022-12-15T12:38:38;22.75;;;10.65;;
27985;SDS011;15453;53.692;10.168;2022-12-15T12:41:12;20.05;;;10.50;;
27985;SDS011;15453;53.692;10.168;2022-12-15T12:43:45;21.75;;;10.55;;
27985;SDS011;15453;53.692;10.168;2022-12-15T12:46:22;18.30;;;10.43;;
27985;SDS011;15453;53.692;10.168;2022-12-15T12:49:15;22.25;;;11.40;;
27985;SDS011;15453;53.692;10.168;2022-12-15T12:51:47;16.05;;;9.82;;
27985;SDS011;15453;53.692;10.168;2022-12-15T12:56:59;18.63;;;9.80;;
27985;SDS011;15453;53.692;10.168;2022-12-15T12:59:37;17.42;;;10.13;;
27985;SDS011;15453;53.692;10.168;2022-12-15T13:04:49;17.73;;;9.40;;
27985;SDS011;15453;53.692;10.168;2022-12-15T13:07:28;17.60;;;10.13;;
27985;SDS011;15453;53.692;10.168;2022-12-15T13:12:48;18.88;;;9.90;;
27985;SDS011;15453;53.692;10.168;2022-12-15T13:15:34;16.15;;;9.30;;
27985;SDS011;15453;53.692;10.168;2022-12-15T13:18:12;16.80;;;9.07;;
27985;SDS011;15453;53.692;10.168;2022-12-15T13:20:40;18.50;;;9.70;;
27985;SDS011;15453;53.692;10.168;2022-12-15T13:33:54;18.03;;;10.20;;
27985;SDS011;15453;53.692;10.168;2022-12-15T13:39:00;15.40;;;9.13;;
27985;SDS011;15453;53.692;10.168;2022-12-15T13:41:25;18.52;;;10.82;;
27985;SDS011;15453;53.692;10.168;2022-12-15T13:43:50;20.17;;;9.90;;
27985;SDS011;15453;53.692;10.168;2022-12-15T13:46:22;18.35;;;9.88;;
27985;SDS011;15453;53.692;10.168;2022-12-15T13:48:59;18.65;;;10.18;;
27985;SDS011;15453;53.692;10.168;2022-12-15T13:51:34;19.58;;;10.73;;
27985;SDS011;15453;53.692;10.168;2022-12-15T13:54:16;21.42;;;10.40;;
27985;SDS011;15453;53.692;10.168;2022-12-15T14:07:34;17.95;;;10.52;;
27985;SDS011;15453;53.692;10.168;2022-12-15T14:10:00;23.23;;;10.40;;
27985;SDS011;15453;53.692;10.168;2022-12-15T14:12:25;17.67;;;9.73;;
27985;SDS011;15453;53.692;10.168;2022-12-15T14:14:51;19.90;;;9.68;;
27985;SDS011;15453;53.692;10.168;2022-12-15T14:17:17;19.95;;;9.98;;
27985;SDS011;15453;53.692;10.168;2022-12-15T14:19:44;15.90;;;9.85;;
27985;SDS011;15453;53.692;10.168;2022-12-15T14:24:42;14.45;;;8.60;;
27985;SDS011;15453;53.692;10.168;2022-12-15T14:27:20;12.93;;;8.93;;
27985;SDS011;15453;53.692;10.168;2022-12-15T14:29:46;15.05;;;8.30;;
27985;SDS011;15453;53.692;10.168;2022-12-15T14:32:12;16.30;;;8.93;;
27985;SDS011;15453;53.692;10.168;2022-12-15T14:34:38;17.23;;;9.35;;
27985;SDS011;15453;53.692;10.168;2022-12-15T14:37:06;17.38;;;9.30;;
27985;SDS011;15453;53.692;10.168;2022-12-15T14:39:39;17.20;;;8.95;;
27985;SDS011;15453;53.692;10.168;2022-12-15T14:42:11;16.05;;;9.38;;
27985;SDS011;15453;53.692;10.168;2022-12-15T14:44:42;21.48;;;9.98;;
27985;SDS011;15453;53.692;10.168;2022-12-15T14:47:18;19.55;;;10.77;;
27985;SDS011;15453;53.692;10.168;2022-12-15T14:49:47;19.35;;;9.52;;
27985;SDS011;15453;53.692;10.168;2022-12-15T14:52:19;18.38;;;9.90;;
27985;SDS011;15453;53.692;10.168;2022-12-15T14:54:57;17.63;;;9.50;;
27985;SDS011;15453;53.692;10.168;2022-12-15T14:57:28;16.90;;;9.93;;
27985;SDS011;15453;53.692;10.168;2022-12-15T15:02:49;22.50;;;10.00;;
27985;SDS011;15453;53.692;10.168;2022-12-15T15:05:43;21.42;;;9.93;;
27985;SDS011;15453;53.692;10.168;2022-12-15T15:08:14;18.30;;;9.82;;
27985;SDS011;15453;53.692;10.168;2022-12-15T15:10:48;18.30;;;9.88;;
27985;SDS011;15453;53.692;10.168;2022-12-15T15:13:16;18.33;;;10.20;;
27985;SDS011;15453;53.692;10.168;2022-12-15T15:15:52;17.63;;;9.57;;
27985;SDS011;15453;53.692;10.168;2022-12-15T15:18:20;18.40;;;10.68;;
27985;SDS011;15453;53.692;10.168;2022-12-15T15:25:50;24.52;;;9.70;;
27985;SDS011;15453;53.692;10.168;2022-12-15T15:28:27;17.52;;;9.05;;
27985;SDS011;15453;53.692;10.168;2022-12-15T15:30:59;17.13;;;10.10;;
27985;SDS011;15453;53.692;10.168;2022-12-15T15:33:30;17.88;;;10.18;;
27985;SDS011;15453;53.692;10.168;2022-12-15T15:35:57;17.98;;;9.82;;
27985;SDS011;15453;53.692;10.168;2022-12-15T15:40:57;16.88;;;9.60;;
27985;SDS011;15453;53.692;10.168;2022-12-15T15:43:24;15.52;;;9.27;;
27985;SDS011;15453;53.692;10.168;2022-12-15T15:46:04;15.60;;;9.73;;
27985;SDS011;15453;53.692;10.168;2022-12-15T15:48:36;15.45;;;10.25;;
27985;SDS011;15453;53.692;10.168;2022-12-15T15:51:05;15.27;;;9.73;;
27985;SDS011;15453;53.692;10.168;2022-12-15T15:53:31;15.50;;;8.80;;
27985;SDS011;15453;53.692;10.168;2022-12-15T15:55:57;16.75;;;8.70;;
27985;SDS011;15453;53.692;10.168;2022-12-15T15:58:24;15.70;;;10.60;;
27985;SDS011;15453;53.692;10.168;2022-12-15T16:00:49;16.50;;;9.43;;
27985;SDS011;15453;53.692;10.168;2022-12-15T16:03:14;16.25;;;9.27;;
27985;SDS011;15453;53.692;10.168;2022-12-15T16:05:40;18.92;;;10.10;;
27985;SDS011;15453;53.692;10.168;2022-12-15T16:08:06;18.60;;;10.38;;
27985;SDS011;15453;53.692;10.168;2022-12-15T16:10:38;17.25;;;10.00;;
27985;SDS011;15453;53.692;10.168;2022-12-15T16:13:03;17.02;;;10.60;;
27985;SDS011;15453;53.692;10.168;2022-12-15T16:15:29;15.48;;;9.88;;
27985;SDS011;15453;53.692;10.168;2022-12-15T16:17:57;15.10;;;9.43;;
27985;SDS011;15453;53.692;10.168;2022-12-15T16:20:24;17.15;;;9.57;;
27985;SDS011;15453;53.692;10.168;2022-12-15T16:22:55;18.88;;;9.82;;
27985;SDS011;15453;53.692;10.168;2022-12-15T16:25:30;17.48;;;9.93;;
27985;SDS011;15453;53.692;10.168;2022-12-15T16:28:02;21.67;;;10.88;;
27985;SDS011;15453;53.692;10.168;2022-12-15T16:30:28;23.08;;;12.50;;
27985;SDS011;15453;53.692;10.168;2022-12-15T16:32:53;22.83;;;12.05;;
27985;SDS011;15453;53.692;10.168;2022-12-15T16:35:20;21.63;;;11.43;;
27985;SDS011;15453;53.692;10.168;2022-12-15T16:37:48;22.23;;;11.80;;
27985;SDS011;15453;53.692;10.168;2022-12-15T16:40:24;22.25;;;13.32;;
27985;SDS011;15453;53.692;10.168;2022-12-15T16:43:00;20.23;;;11.63;;